createdAt,value
2018-07-22T00:00:44.313Z,18.60
2018-07-22T00:04:47.701Z,15.80
2018-07-22T00:08:51.036Z,15.27
2018-07-22T00:12:54.523Z,14.20
2018-07-22T00:16:57.888Z,14.23
2018-07-22T00:21:07.943Z,15.03
2018-07-22T00:25:11.307Z,14.13
2018-07-22T00:29:14.660Z,14.43
2018-07-22T00:33:17.983Z,13.77
2018-07-22T00:37:21.342Z,14.57
2018-07-22T00:41:24.756Z,14.60
2018-07-22T00:45:28.129Z,14.20
2018-07-22T00:49:31.500Z,15.60
2018-07-22T00:53:34.859Z,15.43
2018-07-22T00:57:38.198Z,16.20
2018-07-22T01:01:41.665Z,15.33
2018-07-22T01:05:45.029Z,14.30
2018-07-22T01:09:48.395Z,14.40
2018-07-22T01:13:51.762Z,13.90
2018-07-22T01:17:55.101Z,14.20
2018-07-22T01:21:58.794Z,18.37
2018-07-22T01:26:02.124Z,16.67
2018-07-22T01:30:06.731Z,16.20
2018-07-22T01:34:10.904Z,15.47
2018-07-22T01:38:14.263Z,15.23
2018-07-22T01:42:17.863Z,15.77
2018-07-22T01:46:21.206Z,15.37
2018-07-22T01:50:24.543Z,16.87
2018-07-22T01:54:27.956Z,16.27
2018-07-22T01:58:31.343Z,18.07
2018-07-22T02:02:34.704Z,16.90
2018-07-22T02:06:38.051Z,18.47
2018-07-22T02:10:41.409Z,18.27
2018-07-22T02:14:44.804Z,17.60
2018-07-22T02:18:54.558Z,16.03
2018-07-22T02:22:57.876Z,18.07
2018-07-22T02:27:01.239Z,20.60
2018-07-22T02:31:04.611Z,16.50
2018-07-22T02:35:07.958Z,15.97
2018-07-22T02:39:12.907Z,16.67
2018-07-22T02:43:16.225Z,21.40
2018-07-22T02:47:19.607Z,18.70
2018-07-22T02:51:23.033Z,18.57
2018-07-22T02:55:26.368Z,18.97
2018-07-22T02:59:29.739Z,18.90
2018-07-22T03:03:33.075Z,18.47
2018-07-22T03:07:36.414Z,17.17
2018-07-22T03:11:39.781Z,18.43
2018-07-22T03:15:43.154Z,19.20
2018-07-22T03:19:46.566Z,17.80
2018-07-22T03:23:49.903Z,18.67
2018-07-22T03:27:53.283Z,16.37
2018-07-22T03:31:56.644Z,16.07
2018-07-22T03:36:00.011Z,16.40
2018-07-22T03:40:03.391Z,18.73
2018-07-22T03:44:06.738Z,17.73
2018-07-22T03:48:10.103Z,18.03
2018-07-22T03:52:13.171Z,19.23
2018-07-22T03:56:16.499Z,20.80
2018-07-22T04:00:19.859Z,21.97
2018-07-22T04:04:23.162Z,22.90
2018-07-22T04:08:26.523Z,23.93
2018-07-22T04:12:29.863Z,22.67
2018-07-22T04:16:33.194Z,22.10
2018-07-22T04:20:36.556Z,23.67
2018-07-22T04:24:39.904Z,20.17
2018-07-22T04:28:43.243Z,19.93
2018-07-22T04:32:46.591Z,21.13
2018-07-22T04:36:49.928Z,21.70
2018-07-22T04:40:53.817Z,20.00
2018-07-22T04:44:57.090Z,18.73
2018-07-22T04:49:00.448Z,19.93
2018-07-22T04:53:03.795Z,20.00
2018-07-22T04:57:07.139Z,20.97
2018-07-22T05:01:10.527Z,20.23
2018-07-22T05:05:13.879Z,20.93
2018-07-22T05:09:16.998Z,20.50
2018-07-22T05:13:20.353Z,20.80
2018-07-22T05:17:23.724Z,20.67
2018-07-22T05:21:27.048Z,19.50
2018-07-22T05:25:30.373Z,20.67
2018-07-22T05:29:33.699Z,19.23
2018-07-22T05:33:37.049Z,23.53
2018-07-22T05:37:40.486Z,22.63
2018-07-22T05:41:43.896Z,22.87
2018-07-22T05:45:47.240Z,21.60
2018-07-22T05:49:50.580Z,23.63
2018-07-22T05:53:54.019Z,24.17
2018-07-22T05:57:57.336Z,24.33
2018-07-22T06:02:00.673Z,25.07
2018-07-22T06:06:04.025Z,27.67
2018-07-22T06:10:07.651Z,26.17
2018-07-22T06:14:10.998Z,25.30
2018-07-22T06:18:14.362Z,26.10
2018-07-22T06:22:17.710Z,26.47
2018-07-22T06:26:21.030Z,26.10
2018-07-22T06:30:24.379Z,25.33
2018-07-22T06:34:27.730Z,26.57
2018-07-22T06:38:31.096Z,26.70
2018-07-22T06:42:34.576Z,25.03
2018-07-22T06:46:37.975Z,25.43
2018-07-22T06:50:41.347Z,27.87
2018-07-22T06:54:44.701Z,27.03
2018-07-22T06:58:48.037Z,27.13
2018-07-22T07:02:51.374Z,27.63
2018-07-22T07:06:54.735Z,26.27
2018-07-22T07:10:58.103Z,29.57
2018-07-22T07:15:01.452Z,27.20
2018-07-22T07:19:04.884Z,28.27
2018-07-22T07:23:08.267Z,27.87
2018-07-22T07:27:11.680Z,28.87
2018-07-22T07:31:15.034Z,28.63
2018-07-22T07:35:18.383Z,29.53
2018-07-22T07:39:27.518Z,30.00
2018-07-22T07:43:30.860Z,28.97
2018-07-22T07:47:34.287Z,29.17
2018-07-22T07:51:37.769Z,27.57
2018-07-22T07:55:41.110Z,29.23
2018-07-22T07:59:44.459Z,27.93
2018-07-22T08:03:47.848Z,28.63
2018-07-22T08:07:51.199Z,28.70
2018-07-22T08:11:54.570Z,27.23
2018-07-22T08:15:57.932Z,27.27
2018-07-22T08:20:01.308Z,28.07
2018-07-22T08:24:04.694Z,27.60
2018-07-22T08:28:08.044Z,29.60
2018-07-22T08:32:11.423Z,28.93
2018-07-22T08:36:14.786Z,29.90
2018-07-22T08:40:18.457Z,27.67
2018-07-22T08:44:21.843Z,25.67
2018-07-22T08:48:25.232Z,27.10
2018-07-22T08:52:28.592Z,29.03
2018-07-22T08:56:32.483Z,25.67
2018-07-22T09:00:35.837Z,27.30
2018-07-22T09:04:39.163Z,25.10
2018-07-22T09:08:42.563Z,24.90
2018-07-22T09:12:45.883Z,27.50
2018-07-22T09:16:49.243Z,26.20
2018-07-22T09:20:52.611Z,25.03
2018-07-22T09:24:55.968Z,22.00
2018-07-22T09:28:59.362Z,21.77
2018-07-22T09:33:02.678Z,21.63
2018-07-22T09:37:06.042Z,19.73
2018-07-22T09:41:09.436Z,19.60
2018-07-22T09:45:12.819Z,22.55
2018-07-22T09:49:16.195Z,19.73
2018-07-22T09:53:19.898Z,20.33
2018-07-22T09:57:23.326Z,16.70
2018-07-22T10:01:26.721Z,20.55
2018-07-22T10:05:30.068Z,19.27
2018-07-22T10:09:33.423Z,14.43
2018-07-22T10:13:36.763Z,18.83
2018-07-22T10:17:40.325Z,15.77
2018-07-22T10:21:43.829Z,17.17
2018-07-22T10:25:47.206Z,14.73
2018-07-22T10:29:50.596Z,15.43
2018-07-22T10:33:54.016Z,13.03
2018-07-22T10:37:57.404Z,12.07
2018-07-22T10:42:00.764Z,15.65
2018-07-22T10:46:04.122Z,15.38
2018-07-22T10:50:07.794Z,13.10
2018-07-22T10:54:11.144Z,10.18
2018-07-22T10:58:14.567Z,10.35
2018-07-22T11:02:17.965Z,9.88
2018-07-22T11:06:21.299Z,7.90
2018-07-22T11:10:24.666Z,8.73
2018-07-22T11:14:28.014Z,12.47
2018-07-22T11:18:31.412Z,11.80
2018-07-22T11:22:34.775Z,12.00
2018-07-22T11:26:38.536Z,8.60
2018-07-22T11:30:42.127Z,9.28
2018-07-22T11:34:45.458Z,11.38
2018-07-22T11:38:48.814Z,7.08
2018-07-22T11:42:52.421Z,7.00
2018-07-22T11:46:55.783Z,6.83
2018-07-22T11:50:59.121Z,6.75
2018-07-22T11:55:02.447Z,13.70
2018-07-22T11:59:05.798Z,5.50
2018-07-22T12:03:09.170Z,9.20
2018-07-22T12:07:12.544Z,7.72
2018-07-22T12:11:15.880Z,9.95
2018-07-22T12:15:19.254Z,10.35
2018-07-22T12:19:22.646Z,5.25
2018-07-22T12:23:25.987Z,7.10
2018-07-22T12:27:29.366Z,6.80
2018-07-22T12:31:32.715Z,7.95
2018-07-22T12:35:36.064Z,9.58
2018-07-22T12:39:40.195Z,7.55
2018-07-22T12:43:43.575Z,5.85
2018-07-22T12:47:47.756Z,8.55
2018-07-22T12:51:51.188Z,5.47
2018-07-22T12:55:54.585Z,9.68
2018-07-22T12:59:57.962Z,5.47
2018-07-22T13:04:01.311Z,6.50
2018-07-22T13:08:04.713Z,8.03
2018-07-22T13:12:08.080Z,9.15
2018-07-22T13:16:11.446Z,5.30
2018-07-22T13:20:14.866Z,6.70
2018-07-22T13:24:18.222Z,6.65
2018-07-22T13:28:21.621Z,7.25
2018-07-22T13:32:25.090Z,5.72
2018-07-22T13:36:28.470Z,5.45
2018-07-22T13:40:31.814Z,6.67
2018-07-22T13:44:35.194Z,5.67
2018-07-22T13:48:38.883Z,7.85
2018-07-22T13:52:46.840Z,8.35
2018-07-22T13:56:50.251Z,5.97
2018-07-22T14:00:59.963Z,6.08
2018-07-22T14:05:03.483Z,5.20
2018-07-22T14:09:08.278Z,8.90
2018-07-22T14:13:11.650Z,4.97
2018-07-22T14:17:15.064Z,7.08
2018-07-22T14:21:18.407Z,6.05
2018-07-22T14:25:21.804Z,5.97
2018-07-22T14:29:25.188Z,5.60
2018-07-22T14:33:28.560Z,7.10
2018-07-22T14:37:31.941Z,6.65
2018-07-22T14:41:35.399Z,5.30
2018-07-22T14:45:38.756Z,4.78
2018-07-22T14:49:42.134Z,4.92
2018-07-22T14:53:45.524Z,4.55
2018-07-22T14:57:48.875Z,4.30
2018-07-22T15:01:52.325Z,5.87
2018-07-22T15:05:55.719Z,6.62
2018-07-22T15:09:59.089Z,4.55
2018-07-22T15:14:02.478Z,4.12
2018-07-22T15:18:05.567Z,5.20
2018-07-22T15:22:09.036Z,6.12
2018-07-22T15:26:12.439Z,5.03
2018-07-22T15:30:15.784Z,4.67
2018-07-22T15:34:19.152Z,4.20
2018-07-22T15:38:22.520Z,4.00
2018-07-22T15:42:25.872Z,5.10
2018-07-22T15:46:29.275Z,4.10
2018-07-22T15:50:32.615Z,3.35
2018-07-22T15:54:35.964Z,4.10
2018-07-22T15:58:39.356Z,3.35
2018-07-22T16:02:42.702Z,4.92
2018-07-22T16:06:46.075Z,4.72
2018-07-22T16:10:49.523Z,5.40
2018-07-22T16:14:52.859Z,4.92
2018-07-22T16:18:56.296Z,4.35
2018-07-22T16:22:59.651Z,5.58
2018-07-22T16:27:02.986Z,9.38
2018-07-22T16:31:06.311Z,3.67
2018-07-22T16:35:09.666Z,4.87
2018-07-22T16:39:12.990Z,3.80
2018-07-22T16:43:16.926Z,4.12
2018-07-22T16:47:20.265Z,3.58
2018-07-22T16:51:23.571Z,5.65
2018-07-22T16:55:26.903Z,4.95
2018-07-22T16:59:30.241Z,3.67
2018-07-22T17:03:33.613Z,5.22
2018-07-22T17:07:37.207Z,5.47
2018-07-22T17:11:40.547Z,4.00
2018-07-22T17:15:43.881Z,3.70
2018-07-22T17:19:47.293Z,3.77
2018-07-22T17:23:50.631Z,5.50
2018-07-22T17:27:53.975Z,4.67
2018-07-22T17:31:57.320Z,3.87
2018-07-22T17:36:00.679Z,4.20
2018-07-22T17:40:04.191Z,3.37
2018-07-22T17:44:08.127Z,7.92
2018-07-22T17:48:11.460Z,3.30
2018-07-22T17:52:14.809Z,4.25
2018-07-22T17:56:18.185Z,3.12
2018-07-22T18:00:21.518Z,5.08
2018-07-22T18:04:24.919Z,3.60
2018-07-22T18:08:28.251Z,3.55
2018-07-22T18:12:31.576Z,3.27
2018-07-22T18:16:35.370Z,3.42
2018-07-22T18:20:38.763Z,3.08
2018-07-22T18:24:44.422Z,3.22
2018-07-22T18:28:47.885Z,4.78
2018-07-22T18:32:51.302Z,3.83
2018-07-22T18:36:54.702Z,3.20
2018-07-22T18:40:58.064Z,5.63
2018-07-22T18:45:01.420Z,3.53
2018-07-22T18:49:04.843Z,7.05
2018-07-22T18:53:08.197Z,3.17
2018-07-22T18:57:11.884Z,12.33
2018-07-22T19:01:15.256Z,10.10
2018-07-22T19:05:18.679Z,4.73
2018-07-22T19:09:22.615Z,8.08
2018-07-22T19:13:25.964Z,8.17
2018-07-22T19:17:29.353Z,11.93
2018-07-22T19:21:32.841Z,8.45
2018-07-22T19:25:36.332Z,4.37
2018-07-22T19:29:39.835Z,5.93
2018-07-22T19:33:43.223Z,3.30
2018-07-22T19:37:46.624Z,4.37
2018-07-22T19:41:50.028Z,5.90
2018-07-22T19:45:53.405Z,7.53
2018-07-22T19:49:56.806Z,3.93
2018-07-22T19:54:00.188Z,3.60
2018-07-22T19:58:03.559Z,3.40
2018-07-22T20:02:06.918Z,6.93
2018-07-22T20:06:10.287Z,5.03
2018-07-22T20:10:13.665Z,4.13
2018-07-22T20:14:16.999Z,5.20
2018-07-22T20:18:20.386Z,4.40
2018-07-22T20:22:23.741Z,4.00
2018-07-22T20:26:27.081Z,5.43
2018-07-22T20:30:30.444Z,5.00
2018-07-22T20:34:33.831Z,5.13
2018-07-22T20:38:37.180Z,9.40
2018-07-22T20:42:40.562Z,5.70
2018-07-22T20:46:43.901Z,4.77
2018-07-22T20:50:47.313Z,3.53
2018-07-22T20:54:50.704Z,3.10
2018-07-22T20:58:54.026Z,4.57
2018-07-22T21:02:57.382Z,4.03
2018-07-22T21:07:01.539Z,5.23
2018-07-22T21:11:04.946Z,3.50
2018-07-22T21:15:08.909Z,5.87
2018-07-22T21:19:12.256Z,6.17
2018-07-22T21:23:15.663Z,5.20
2018-07-22T21:27:21.450Z,2.87
2018-07-22T21:31:25.105Z,6.17
2018-07-22T21:35:28.528Z,3.77
2018-07-22T21:39:32.287Z,4.47
2018-07-22T21:43:35.754Z,3.47
2018-07-22T21:47:39.212Z,3.63
2018-07-22T21:51:42.563Z,3.50
2018-07-22T21:55:47.035Z,4.97
2018-07-22T21:59:50.472Z,3.57
2018-07-22T22:03:54.696Z,3.30
2018-07-22T22:07:58.511Z,3.53
2018-07-22T22:12:01.978Z,3.70
2018-07-22T22:16:05.431Z,7.37
2018-07-22T22:20:08.790Z,4.50
2018-07-22T22:24:12.185Z,4.30
2018-07-22T22:28:15.528Z,3.80
2018-07-22T22:32:18.615Z,3.43
2018-07-22T22:36:21.997Z,3.73
2018-07-22T22:40:25.328Z,3.97
2018-07-22T22:44:28.410Z,5.73
2018-07-22T22:48:31.767Z,4.00
2018-07-22T22:52:35.100Z,4.03
2018-07-22T22:56:38.443Z,5.77
2018-07-22T23:00:41.788Z,3.80
2018-07-22T23:04:45.243Z,5.97
2018-07-22T23:08:48.623Z,4.70
2018-07-22T23:12:51.978Z,7.07
2018-07-22T23:16:55.323Z,5.53
2018-07-22T23:20:58.637Z,5.40
2018-07-22T23:25:02.736Z,5.67
2018-07-22T23:29:06.093Z,6.50
2018-07-22T23:33:09.430Z,5.83
2018-07-22T23:37:12.778Z,9.30
2018-07-22T23:41:16.091Z,5.00
2018-07-22T23:45:19.424Z,3.90
2018-07-22T23:49:22.760Z,4.53
2018-07-22T23:53:26.169Z,3.73
2018-07-22T23:57:30.864Z,4.23
